Sioux Lookout Airport

CYXL | YXL

Sioux Lookout , Ontario , Canada

Wednesday, October 23rd, 2019 | 23:55

Weather

CYXL 240400Z 32010G16KT 3SM -SHSN OVC015 M01/M02 A2997 RMK SC8 SLP171

Charts

No Charts Available

Gates

No Gates Available

Runways

2 Available

Events

No events for this airport


New event